Time;durP1;ratioP1;P1;durP2;ratioP2;P2;SDS_P1;SDS_P2;PMS_P1;PMS_P2;Temp;Humidity;BMP_temperature;BMP_pressure;BME280_temperature;BME280_humidity;BME280_pressure;Samples;Min_cycle;Max_cycle;Signal;HPM_P1;HPM_P2
2023/08/06 00:04:04;;;;;;;7.93;6.18;;;19.40;94.20;;;;;;10493403;28;20485;-67
2023/08/06 00:09:04;;;;;;;7.37;6.10;;;19.40;94.20;;;;;;10503298;28;20451;-66
2023/08/06 00:14:05;;;;;;;7.27;6.30;;;19.40;94.20;;;;;;10502958;28;20425;-66
2023/08/06 00:19:06;;;;;;;8.40;6.57;;;19.40;94.20;;;;;;10499223;28;20900;-67
2023/08/06 00:24:06;;;;;;;6.97;6.27;;;19.40;94.20;;;;;;10501407;28;20396;-66
2023/08/06 00:29:07;;;;;;;7.87;6.73;;;19.40;94.20;;;;;;10496049;28;20475;-67
2023/08/06 00:34:07;;;;;;;7.30;6.60;;;19.40;94.30;;;;;;10502004;28;21000;-67
2023/08/06 00:39:08;;;;;;;8.23;7.10;;;19.30;94.20;;;;;;10490266;28;20499;-66
2023/08/06 00:44:09;;;;;;;7.60;6.83;;;19.30;94.20;;;;;;10491368;28;20393;-66
2023/08/06 00:49:09;;;;;;;7.90;7.10;;;19.30;94.30;;;;;;10509572;28;20767;-67
2023/08/06 00:54:10;;;;;;;8.02;6.72;;;19.30;94.30;;;;;;10488103;28;20412;-67
2023/08/06 00:59:12;;;;;;;8.50;7.57;;;19.30;94.20;;;;;;10492095;28;20410;-66
2023/08/06 01:04:13;;;;;;;9.02;7.25;;;19.30;94.30;;;;;;10483601;28;20844;-66
2023/08/06 01:09:50;;;;;;;7.93;7.13;;;19.20;94.20;;;;;;10498596;28;20478;-67
2023/08/06 01:14:58;;;;;;;8.75;7.53;;;19.30;94.30;;;;;;10495544;28;20406;-66
2023/08/06 01:19:58;;;;;;;8.33;7.47;;;19.30;94.30;;;;;;10494025;28;20408;-66
2023/08/06 01:24:59;;;;;;;8.33;7.40;;;19.30;94.30;;;;;;10496923;28;20800;-66
2023/08/06 01:30:27;;;;;;;8.68;7.25;;;19.30;94.30;;;;;;10491433;28;20804;-67
2023/08/06 01:35:29;;;;;;;7.90;7.10;;;19.20;94.30;;;;;;10492181;28;20466;-66
2023/08/06 01:40:30;;;;;;;8.48;7.57;;;19.20;94.30;;;;;;10505275;28;20445;-66
2023/08/06 01:45:31;;;;;;;8.55;7.45;;;19.20;94.30;;;;;;10492644;28;21113;-66
2023/08/06 01:50:31;;;;;;;8.63;7.73;;;19.20;94.30;;;;;;10484108;28;20956;-66
2023/08/06 01:55:32;;;;;;;7.77;6.97;;;19.20;94.30;;;;;;10493050;28;20414;-66
2023/08/06 02:00:33;;;;;;;9.50;7.70;;;19.20;94.30;;;;;;10505520;28;20802;-66
2023/08/06 02:05:33;;;;;;;8.17;7.33;;;19.20;94.30;;;;;;10490566;28;20399;-66
2023/08/06 02:10:34;;;;;;;8.98;7.50;;;19.10;94.30;;;;;;10498327;28;20475;-66
2023/08/06 02:15:34;;;;;;;8.90;8.00;;;19.20;94.30;;;;;;10488964;28;20419;-66
2023/08/06 02:20:35;;;;;;;9.18;7.90;;;19.10;94.30;;;;;;10493953;28;20717;-66
2023/08/06 02:25:36;;;;;;;8.90;7.53;;;19.10;94.30;;;;;;10493480;28;20767;-66
2023/08/06 02:30:36;;;;;;;9.17;7.90;;;19.10;94.30;;;;;;10492095;28;20443;-66
2023/08/06 02:35:37;;;;;;;9.30;7.80;;;19.10;94.30;;;;;;10493497;28;20415;-66
2023/08/06 02:40:44;;;;;;;8.40;7.53;;;19.10;94.30;;;;;;10483381;28;20410;-66
2023/08/06 02:45:44;;;;;;;8.93;7.97;;;19.10;94.30;;;;;;10478233;28;20414;-66
2023/08/06 02:50:45;;;;;;;8.93;7.90;;;19.10;94.30;;;;;;10488414;28;20469;-66
2023/08/06 02:55:47;;;;;;;8.80;7.90;;;19.10;94.30;;;;;;10494920;28;20399;-66
2023/08/06 03:01:02;;;;;;;9.57;7.90;;;19.00;94.30;;;;;;10487888;28;20771;-66
2023/08/06 03:06:03;;;;;;;8.65;7.80;;;19.00;94.30;;;;;;10490282;28;20438;-66
2023/08/06 03:11:03;;;;;;;10.33;8.23;;;19.00;94.30;;;;;;10501920;28;20841;-66
2023/08/06 03:16:04;;;;;;;9.40;8.40;;;19.00;94.30;;;;;;10502246;28;20857;-66
2023/08/06 03:21:05;;;;;;;9.00;8.10;;;19.00;94.30;;;;;;10498256;28;20408;-66
2023/08/06 03:26:06;;;;;;;9.50;8.15;;;19.00;94.40;;;;;;10501658;28;20447;-66
2023/08/06 03:31:06;;;;;;;9.50;8.40;;;19.00;94.40;;;;;;10492806;28;21006;-66
2023/08/06 03:36:07;;;;;;;10.93;8.20;;;19.00;94.40;;;;;;10500437;28;20417;-67
2023/08/06 03:41:07;;;;;;;9.20;8.17;;;19.00;94.40;;;;;;10497723;28;20420;-66
2023/08/06 03:46:08;;;;;;;8.87;7.97;;;19.10;94.40;;;;;;10497399;28;20948;-66
2023/08/06 03:51:09;;;;;;;11.83;8.70;;;18.90;94.40;;;;;;10493314;28;20446;-66
2023/08/06 03:56:09;;;;;;;9.20;8.17;;;19.00;94.40;;;;;;10497741;28;20436;-66
2023/08/06 04:01:10;;;;;;;10.33;8.73;;;19.00;94.40;;;;;;10487876;28;20676;-66
2023/08/06 04:06:10;;;;;;;9.03;8.13;;;19.00;94.40;;;;;;10484313;28;20416;-66
2023/08/06 04:11:13;;;;;;;9.23;8.23;;;18.90;94.40;;;;;;10492614;28;20419;-66
2023/08/06 04:16:14;;;;;;;12.03;8.70;;;18.90;94.40;;;;;;10485958;28;20406;-66
2023/08/06 04:21:15;;;;;;;9.27;8.20;;;18.90;94.40;;;;;;10485785;28;20906;-66
2023/08/06 04:26:15;;;;;;;10.70;8.70;;;18.90;94.40;;;;;;10488408;28;20411;-66
2023/08/06 04:31:16;;;;;;;9.55;8.40;;;18.90;94.40;;;;;;10496411;28;20415;-66
2023/08/06 04:36:17;;;;;;;10.30;8.67;;;19.00;94.50;;;;;;10489801;28;20508;-66
2023/08/06 04:41:18;;;;;;;11.00;9.07;;;18.90;94.40;;;;;;10483970;28;20545;-66
2023/08/06 04:46:18;;;;;;;9.80;8.80;;;18.90;94.50;;;;;;10484684;28;20434;-66
2023/08/06 04:51:19;;;;;;;10.00;8.90;;;18.90;94.40;;;;;;10490920;28;20405;-66
2023/08/06 04:56:19;;;;;;;9.82;8.82;;;18.90;94.50;;;;;;10480994;28;20409;-66
2023/08/06 05:01:20;;;;;;;8.60;7.70;;;18.90;94.50;;;;;;10498340;28;20536;-66
2023/08/06 05:06:21;;;;;;;9.97;8.83;;;18.90;94.50;;;;;;10491578;28;20419;-66
2023/08/06 05:11:22;;;;;;;10.17;8.60;;;18.90;94.50;;;;;;10485027;28;20409;-66
2023/08/06 05:16:23;;;;;;;9.67;8.30;;;18.90;94.50;;;;;;10493405;28;20420;-66
2023/08/06 05:21:24;;;;;;;10.80;8.97;;;18.90;94.50;;;;;;10499092;28;20421;-66
2023/08/06 05:26:24;;;;;;;10.10;8.77;;;18.90;94.50;;;;;;10488671;28;20410;-66
2023/08/06 05:31:25;;;;;;;9.63;8.63;;;18.90;94.50;;;;;;10490181;28;20427;-66
2023/08/06 05:36:26;;;;;;;10.40;8.77;;;18.90;94.50;;;;;;10491072;28;20425;-66
2023/08/06 05:41:26;;;;;;;10.88;8.95;;;18.90;94.60;;;;;;10493470;28;20398;-67
2023/08/06 05:46:27;;;;;;;10.03;8.67;;;18.90;94.60;;;;;;10490052;28;20399;-67
2023/08/06 05:51:28;;;;;;;9.30;8.30;;;18.90;94.60;;;;;;10483285;28;20892;-66
2023/08/06 05:56:28;;;;;;;9.30;8.30;;;18.90;94.50;;;;;;10491282;28;20411;-66
2023/08/06 06:01:29;;;;;;;9.93;8.40;;;18.90;94.60;;;;;;10476621;28;20413;-66
2023/08/06 06:06:29;;;;;;;10.50;8.60;;;18.90;94.60;;;;;;10475188;28;20406;-66
2023/08/06 06:11:30;;;;;;;9.37;8.27;;;18.90;94.60;;;;;;10480457;28;20851;-66
2023/08/06 06:16:31;;;;;;;9.30;8.32;;;18.90;94.60;;;;;;10486875;28;20406;-66
2023/08/06 06:21:31;;;;;;;10.05;8.75;;;18.90;94.60;;;;;;10487756;28;20860;-66
2023/08/06 06:26:32;;;;;;;9.75;8.43;;;18.90;94.60;;;;;;10488428;28;20489;-66
2023/08/06 06:31:33;;;;;;;9.80;8.32;;;18.90;94.60;;;;;;10478174;28;20465;-66
2023/08/06 06:36:33;;;;;;;10.27;8.43;;;18.90;94.60;;;;;;10486842;28;20410;-66
2023/08/06 06:41:34;;;;;;;9.57;8.20;;;18.90;94.60;;;;;;10490241;28;20475;-65
2023/08/06 06:46:35;;;;;;;9.30;8.30;;;18.90;94.60;;;;;;10500864;28;20413;-67
2023/08/06 06:51:35;;;;;;;9.80;8.33;;;18.90;94.60;;;;;;10493117;28;20421;-67
2023/08/06 06:56:36;;;;;;;9.33;8.23;;;18.90;94.70;;;;;;10494082;28;20407;-66
2023/08/06 07:01:36;;;;;;;10.68;8.55;;;18.90;94.60;;;;;;10496027;28;20411;-66
2023/08/06 07:06:37;;;;;;;9.52;8.38;;;18.90;94.60;;;;;;10492049;28;21061;-66
2023/08/06 07:11:38;;;;;;;9.55;8.55;;;18.90;94.70;;;;;;10488528;28;20724;-66
2023/08/06 07:16:38;;;;;;;11.02;9.07;;;18.90;94.60;;;;;;10479400;28;20419;-66
2023/08/06 07:21:39;;;;;;;10.43;8.20;;;18.90;94.60;;;;;;10492228;28;20869;-75
2023/08/06 07:26:39;;;;;;;10.37;8.63;;;18.90;94.60;;;;;;10488818;28;20778;-67
2023/08/06 07:31:40;;;;;;;9.50;8.50;;;20.00;94.80;;;;;;10497911;28;20444;-67
2023/08/06 07:36:44;;;;;;;10.63;8.53;;;18.90;94.60;;;;;;10494499;28;20477;-67
2023/08/06 07:41:45;;;;;;;10.13;8.65;;;18.90;94.60;;;;;;10481327;28;20401;-67
2023/08/06 07:46:46;;;;;;;9.77;8.43;;;19.00;94.60;;;;;;10483763;28;20407;-67
2023/08/06 07:51:47;;;;;;;10.80;8.40;;;19.00;94.60;;;;;;10485588;28;20419;-66
2023/08/06 07:56:47;;;;;;;9.50;8.45;;;19.00;94.60;;;;;;10499737;28;20407;-67
2023/08/06 08:01:48;;;;;;;11.02;9.30;;;18.90;94.60;;;;;;10494883;28;20395;-66
2023/08/06 08:06:48;;;;;;;10.40;8.85;;;19.00;94.60;;;;;;10489055;28;20448;-67
2023/08/06 08:11:50;;;;;;;10.30;9.20;;;19.00;94.60;;;;;;10485636;28;20422;-67
2023/08/06 08:16:50;;;;;;;10.52;8.70;;;19.00;94.60;;;;;;10487240;28;20499;-67
2023/08/06 08:21:51;;;;;;;10.43;9.33;;;19.10;94.60;;;;;;10483896;28;21211;-67
2023/08/06 08:26:52;;;;;;;11.40;9.47;;;19.10;94.60;;;;;;10498902;28;20402;-67
2023/08/06 08:31:53;;;;;;;10.52;9.43;;;19.10;94.50;;;;;;10493070;28;20719;-67
2023/08/06 08:36:53;;;;;;;10.43;9.25;;;19.10;94.50;;;;;;10490737;28;20409;-66
2023/08/06 08:41:54;;;;;;;10.30;9.00;;;19.10;94.40;;;;;;10478141;28;20893;-71
2023/08/06 08:46:55;;;;;;;10.13;8.97;;;19.10;94.40;;;;;;10483273;28;20410;-66
2023/08/06 08:51:57;;;;;;;11.40;9.75;;;19.20;94.40;;;;;;10496973;28;21050;-66
2023/08/06 08:56:57;;;;;;;11.85;9.98;;;19.20;94.60;;;;;;10489889;28;20457;-65
2023/08/06 09:02:01;;;;;;;10.90;9.77;;;19.20;94.60;;;;;;10477653;28;20466;-65
2023/08/06 09:07:02;;;;;;;12.20;9.85;;;19.20;94.50;;;;;;10487395;28;20413;-67
2023/08/06 09:12:11;;;;;;;11.35;10.07;;;19.30;94.40;;;;;;10483608;28;20828;-66
2023/08/06 09:17:12;;;;;;;12.00;10.70;;;19.30;94.40;;;;;;10476842;28;20411;-66
2023/08/06 09:22:13;;;;;;;10.90;9.70;;;19.30;94.30;;;;;;10471505;28;21118;-66
2023/08/06 09:27:15;;;;;;;10.97;9.83;;;19.30;94.30;;;;;;10483390;28;20783;-66
2023/08/06 09:32:15;;;;;;;11.55;10.35;;;19.40;94.30;;;;;;10486072;28;20414;-66
2023/08/06 09:37:16;;;;;;;11.00;9.90;;;19.40;94.30;;;;;;10482178;28;20418;-66
2023/08/06 09:42:19;;;;;;;12.10;10.37;;;19.40;94.20;;;;;;10482458;28;20504;-66
2023/08/06 09:47:22;;;;;;;11.77;10.47;;;19.50;94.20;;;;;;10481074;28;20434;-66
2023/08/06 09:52:23;;;;;;;11.33;9.80;;;19.50;94.20;;;;;;10487071;28;20971;-66
2023/08/06 09:57:25;;;;;;;11.43;10.23;;;19.50;94.30;;;;;;10480841;28;20408;-66
2023/08/06 10:02:26;;;;;;;11.73;10.20;;;19.60;94.30;;;;;;10483045;28;20435;-66
2023/08/06 10:07:29;;;;;;;12.75;10.77;;;19.60;94.20;;;;;;10486833;28;20406;-66
2023/08/06 10:12:35;;;;;;;13.10;11.00;;;19.60;94.60;;;;;;10474397;28;20420;-66
2023/08/06 10:17:37;;;;;;;11.70;10.05;;;19.60;94.40;;;;;;10499594;28;20975;-66
2023/08/06 10:22:44;;;;;;;11.40;10.20;;;19.60;94.50;;;;;;10487826;28;20430;-66
2023/08/06 10:27:47;;;;;;;11.17;10.07;;;19.70;94.40;;;;;;10490526;28;20398;-66
2023/08/06 10:32:53;;;;;;;11.68;10.48;;;19.70;94.30;;;;;;10493939;28;20504;-66
2023/08/06 10:37:57;;;;;;;11.60;10.30;;;19.80;94.40;;;;;;10488085;28;20518;-66
2023/08/06 10:43:01;;;;;;;11.18;10.07;;;19.80;94.30;;;;;;10492433;28;20460;-66
2023/08/06 10:48:02;;;;;;;11.10;9.93;;;19.80;94.40;;;;;;10504800;28;20671;-66
2023/08/06 10:53:05;;;;;;;11.23;9.90;;;19.80;94.40;;;;;;10491423;28;20401;-66
2023/08/06 10:58:06;;;;;;;11.65;9.70;;;19.90;94.40;;;;;;10490994;28;20905;-66
2023/08/06 11:03:07;;;;;;;11.00;9.73;;;19.90;94.30;;;;;;10485842;28;20406;-66
2023/08/06 11:08:07;;;;;;;11.37;9.93;;;20.00;94.30;;;;;;10482721;28;20414;-66
2023/08/06 11:13:08;;;;;;;10.48;9.38;;;20.10;94.20;;;;;;10484687;28;20535;-70
2023/08/06 11:18:09;;;;;;;10.40;9.30;;;20.10;94.30;;;;;;10484134;28;20404;-66
2023/08/06 11:23:10;;;;;;;9.40;8.40;;;20.10;94.40;;;;;;10494602;28;20410;-67
2023/08/06 11:28:12;;;;;;;10.17;8.53;;;20.10;94.50;;;;;;10488136;28;20509;-66
2023/08/06 11:33:12;;;;;;;10.73;8.37;;;20.20;94.60;;;;;;10492507;28;20803;-66
2023/08/06 11:38:14;;;;;;;10.53;9.30;;;20.20;94.60;;;;;;10501108;28;20396;-66
2023/08/06 11:43:15;;;;;;;10.27;9.18;;;20.30;94.50;;;;;;10493992;28;20484;-66
2023/08/06 11:48:16;;;;;;;11.00;9.18;;;20.30;94.40;;;;;;10499024;28;20387;-66
2023/08/06 11:53:18;;;;;;;9.80;8.80;;;20.40;94.30;;;;;;10483165;28;20506;-66
2023/08/06 11:58:19;;;;;;;9.70;8.33;;;20.40;94.30;;;;;;10502957;28;20677;-70
2023/08/06 12:03:20;;;;;;;7.83;6.00;;;20.40;94.20;;;;;;10487887;28;20913;-71
2023/08/06 12:08:26;;;;;;;6.22;4.63;;;20.50;94.60;;;;;;10492380;28;20432;-69
2023/08/06 12:13:27;;;;;;;5.60;4.20;;;20.60;95.30;;;;;;10477579;28;20465;-70
2023/08/06 12:18:29;;;;;;;5.00;3.77;;;20.80;95.10;;;;;;10481605;28;20411;-73
2023/08/06 12:23:33;;;;;;;4.70;3.40;;;20.80;94.70;;;;;;10484174;28;21215;-74
2023/08/06 12:28:33;;;;;;;3.55;3.10;;;20.70;94.70;;;;;;10484445;28;20413;-74
2023/08/06 12:33:34;;;;;;;4.47;3.17;;;20.70;94.40;;;;;;10478243;28;20500;-74
2023/08/06 12:38:35;;;;;;;3.40;2.50;;;20.50;94.50;;;;;;10482733;28;20400;-75
2023/08/06 12:43:36;;;;;;;3.53;2.50;;;20.30;94.70;;;;;;10493099;28;20430;-77
2023/08/06 12:48:36;;;;;;;3.60;2.57;;;20.20;94.60;;;;;;10482934;28;20686;-75
2023/08/06 12:53:37;;;;;;;3.90;2.87;;;20.00;94.50;;;;;;10478616;28;20428;-75
2023/08/06 12:58:39;;;;;;;3.28;2.97;;;20.00;95.50;;;;;;10480881;28;20422;-75
2023/08/06 13:03:40;;;;;;;5.80;3.70;;;20.00;96.40;;;;;;10486657;28;20913;-74
2023/08/06 13:08:40;;;;;;;6.67;3.70;;;20.00;96.80;;;;;;10487007;28;20417;-70
2023/08/06 13:13:41;;;;;;;6.37;3.70;;;20.00;97.10;;;;;;10486541;28;20424;-69
2023/08/06 13:18:42;;;;;;;5.40;3.50;;;20.10;97.20;;;;;;10488453;28;20922;-70
2023/08/06 13:23:42;;;;;;;6.20;3.43;;;20.10;97.20;;;;;;10483405;28;20418;-70
2023/08/06 13:28:44;;;;;;;4.63;3.30;;;20.20;97.10;;;;;;10495573;28;20716;-69
2023/08/06 13:33:45;;;;;;;5.47;3.30;;;20.20;96.80;;;;;;10478262;28;20776;-70
2023/08/06 13:38:46;;;;;;;5.53;3.55;;;20.20;97.00;;;;;;10492237;28;20801;-70
2023/08/06 13:43:47;;;;;;;4.17;3.23;;;20.20;97.50;;;;;;10492607;28;20401;-69
2023/08/06 13:48:50;;;;;;;3.97;3.45;;;20.20;97.30;;;;;;10497137;28;20490;-69
2023/08/06 13:53:52;;;;;;;4.90;3.63;;;20.20;97.30;;;;;;10494188;28;20506;-69
2023/08/06 13:58:53;;;;;;;5.00;3.83;;;20.20;97.20;;;;;;10488086;28;20391;-69
2023/08/06 14:03:53;;;;;;;4.50;3.97;;;20.20;97.10;;;;;;10483262;28;20403;-70
2023/08/06 14:08:54;;;;;;;5.23;3.93;;;20.20;97.20;;;;;;10490144;28;20740;-71
2023/08/06 14:13:54;;;;;;;6.23;4.40;;;20.20;97.30;;;;;;10486944;28;20409;-71
2023/08/06 14:18:55;;;;;;;6.80;4.70;;;20.20;97.30;;;;;;10479328;28;20417;-71
2023/08/06 14:23:55;;;;;;;5.50;4.00;;;20.20;97.60;;;;;;10484960;28;20474;-71
2023/08/06 14:28:56;;;;;;;6.90;4.83;;;20.10;97.50;;;;;;10488981;28;20403;-71
2023/08/06 14:33:57;;;;;;;7.17;4.90;;;20.20;97.50;;;;;;10488517;28;20930;-71
2023/08/06 14:38:57;;;;;;;5.93;5.23;;;20.10;97.50;;;;;;10482270;28;20589;-72
2023/08/06 14:43:58;;;;;;;6.63;5.57;;;20.20;97.50;;;;;;10468820;28;20449;-72
2023/08/06 14:48:59;;;;;;;6.43;5.20;;;20.10;97.50;;;;;;10485042;28;20813;-70
2023/08/06 14:53:59;;;;;;;7.20;5.93;;;20.20;97.50;;;;;;10488922;28;20945;-70
2023/08/06 14:59:01;;;;;;;9.32;6.88;;;20.20;97.50;;;;;;10490582;28;20804;-69
2023/08/06 15:04:02;;;;;;;9.55;6.88;;;20.20;97.60;;;;;;10491098;28;20410;-71
2023/08/06 15:09:02;;;;;;;7.95;6.25;;;20.20;97.50;;;;;;10486873;28;20409;-70
2023/08/06 15:14:06;;;;;;;7.87;5.93;;;20.20;97.50;;;;;;10481458;28;20941;-70
2023/08/06 15:19:07;;;;;;;7.43;6.27;;;20.10;97.40;;;;;;10491003;28;20409;-71
2023/08/06 15:24:08;;;;;;;8.40;6.60;;;20.10;97.40;;;;;;10503038;28;20912;-70
2023/08/06 15:29:09;;;;;;;6.57;5.67;;;20.10;97.40;;;;;;10496727;28;20776;-70
2023/08/06 15:34:10;;;;;;;6.70;5.32;;;20.10;97.40;;;;;;10499161;28;20444;-70
2023/08/06 15:39:11;;;;;;;6.73;5.60;;;20.10;97.50;;;;;;10489447;28;20482;-70
2023/08/06 15:44:11;;;;;;;8.05;6.05;;;20.10;97.40;;;;;;10499442;28;20480;-70
2023/08/06 15:49:12;;;;;;;7.40;6.22;;;20.10;97.40;;;;;;10490099;28;21269;-69
2023/08/06 15:54:13;;;;;;;7.00;6.03;;;20.10;97.40;;;;;;10482721;28;20507;-74
2023/08/06 15:59:29;;;;;;;7.32;5.75;;;20.10;97.50;;;;;;10482881;28;20939;-68
2023/08/06 16:04:31;;;;;;;5.78;4.97;;;20.00;97.50;;;;;;10495900;28;20752;-67
2023/08/06 16:09:31;;;;;;;10.25;4.70;;;20.00;97.50;;;;;;10492332;28;20417;-70
2023/08/06 16:14:36;;;;;;;8.43;4.80;;;20.00;97.80;;;;;;10476796;28;20893;-69
2023/08/06 16:19:37;;;;;;;7.77;5.13;;;20.00;97.70;;;;;;10487850;28;20409;-70
2023/08/06 16:24:38;;;;;;;6.43;5.13;;;20.00;97.80;;;;;;10478494;28;20426;-69
2023/08/06 16:29:39;;;;;;;7.37;5.07;;;20.00;97.70;;;;;;10494431;28;20449;-71
2023/08/06 16:34:39;;;;;;;6.82;5.60;;;20.00;97.70;;;;;;10475236;28;20917;-71
2023/08/06 16:39:40;;;;;;;7.05;5.18;;;20.00;97.70;;;;;;10481209;28;20731;-70
2023/08/06 16:44:41;;;;;;;7.77;5.60;;;20.00;97.70;;;;;;10471459;28;20494;-70
2023/08/06 16:49:42;;;;;;;9.47;6.70;;;20.00;97.80;;;;;;10479119;28;20409;-70
2023/08/06 16:54:42;;;;;;;9.93;6.83;;;19.90;97.80;;;;;;10480117;28;20914;-70
2023/08/06 16:59:43;;;;;;;6.57;5.20;;;20.00;97.70;;;;;;10477223;28;20407;-71
2023/08/06 17:04:45;;;;;;;7.75;5.70;;;19.90;97.70;;;;;;10485524;28;21065;-71
2023/08/06 17:09:45;;;;;;;7.72;4.40;;;19.90;97.70;;;;;;10481509;28;20414;-71
2023/08/06 17:14:46;;;;;;;7.13;4.83;;;19.90;97.70;;;;;;10488126;28;21173;-71
2023/08/06 17:19:47;;;;;;;6.70;3.97;;;19.90;97.60;;;;;;10483480;28;20768;-71
2023/08/06 17:24:47;;;;;;;9.13;4.57;;;20.00;97.60;;;;;;10484481;28;20402;-70
2023/08/06 17:29:48;;;;;;;6.40;3.50;;;20.00;97.60;;;;;;10476211;28;20421;-71
2023/08/06 17:34:49;;;;;;;6.93;3.57;;;19.90;97.60;;;;;;10493311;28;20401;-68
2023/08/06 17:39:49;;;;;;;7.53;3.80;;;19.80;97.70;;;;;;10491828;28;20558;-68
2023/08/06 17:44:50;;;;;;;6.97;4.00;;;19.80;97.70;;;;;;10489404;28;20407;-68
2023/08/06 17:49:50;;;;;;;7.80;3.75;;;19.90;97.60;;;;;;10499444;28;20396;-68
2023/08/06 17:54:51;;;;;;;7.82;3.63;;;19.90;97.50;;;;;;10487335;28;20411;-68
2023/08/06 17:59:52;;;;;;;7.72;3.80;;;19.90;97.40;;;;;;10494931;28;20783;-68
2023/08/06 18:04:52;;;;;;;6.43;3.80;;;19.90;97.40;;;;;;10479746;28;20417;-72
2023/08/06 18:09:53;;;;;;;5.50;2.78;;;19.90;97.40;;;;;;10466064;28;20898;-69
2023/08/06 18:14:54;;;;;;;7.47;2.83;;;19.80;97.80;;;;;;10483018;28;20403;-70
2023/08/06 18:19:55;;;;;;;8.90;2.90;;;19.80;97.90;;;;;;10481928;28;20399;-69
2023/08/06 18:24:57;;;;;;;7.97;2.83;;;19.70;97.90;;;;;;10473694;28;20415;-69
2023/08/06 18:29:58;;;;;;;5.40;2.60;;;19.80;97.90;;;;;;10475418;28;20796;-68
2023/08/06 18:34:58;;;;;;;6.65;2.50;;;19.80;97.90;;;;;;10480778;28;20412;-69
2023/08/06 18:40:01;;;;;;;6.23;2.47;;;19.80;97.80;;;;;;10476362;28;20403;-69
2023/08/06 18:45:02;;;;;;;7.18;2.65;;;19.80;97.70;;;;;;10493571;28;20443;-69
2023/08/06 18:50:03;;;;;;;3.90;2.33;;;19.80;97.70;;;;;;10485307;28;20439;-68
2023/08/06 18:55:04;;;;;;;7.00;2.50;;;19.80;97.70;;;;;;10478028;28;20883;-68
2023/08/06 19:00:06;;;;;;;4.88;2.10;;;19.70;97.60;;;;;;10474554;28;20467;-69
2023/08/06 19:05:07;;;;;;;4.68;2.28;;;19.70;97.50;;;;;;10487928;28;20852;-68
2023/08/06 19:10:08;;;;;;;5.70;1.83;;;19.70;97.50;;;;;;10489978;28;20398;-69
2023/08/06 19:15:09;;;;;;;4.68;1.92;;;19.70;97.50;;;;;;10480190;28;20414;-69
2023/08/06 19:20:11;;;;;;;4.97;1.90;;;19.70;97.50;;;;;;10482005;28;20931;-69
2023/08/06 19:25:12;;;;;;;5.28;1.92;;;19.70;97.40;;;;;;10477744;28;20545;-69
2023/08/06 19:30:13;;;;;;;4.07;1.88;;;19.60;97.40;;;;;;10476805;28;20769;-69
2023/08/06 19:35:13;;;;;;;4.13;1.90;;;19.60;97.40;;;;;;10481513;28;20417;-68
2023/08/06 19:40:15;;;;;;;5.33;1.93;;;19.60;97.40;;;;;;10479589;28;20753;-69
2023/08/06 19:45:16;;;;;;;4.43;1.77;;;19.60;97.40;;;;;;10480572;28;20461;-69
2023/08/06 19:50:17;;;;;;;5.33;1.97;;;19.60;97.40;;;;;;10485715;28;20889;-69
2023/08/06 19:55:17;;;;;;;6.73;2.03;;;19.60;97.40;;;;;;10475715;28;20573;-70
2023/08/06 20:00:18;;;;;;;5.73;2.00;;;19.60;97.70;;;;;;10477838;28;20415;-69
2023/08/06 20:05:19;;;;;;;5.07;1.73;;;19.60;97.40;;;;;;10476242;28;20539;-69
2023/08/06 20:10:19;;;;;;;5.50;1.90;;;19.60;97.40;;;;;;10478612;28;20472;-68
2023/08/06 20:15:20;;;;;;;9.27;2.30;;;19.50;97.40;;;;;;10477905;28;20956;-69
2023/08/06 20:20:21;;;;;;;4.20;1.90;;;19.60;97.40;;;;;;10478865;28;20415;-69
2023/08/06 20:25:21;;;;;;;5.18;2.10;;;19.50;97.40;;;;;;10477779;28;20417;-69
2023/08/06 20:30:22;;;;;;;5.60;2.10;;;19.50;97.40;;;;;;10477499;28;20420;-69
2023/08/06 20:35:22;;;;;;;4.57;1.75;;;19.50;97.40;;;;;;10488347;28;20427;-68
2023/08/06 20:40:23;;;;;;;5.88;1.95;;;19.50;97.40;;;;;;10483679;28;20756;-70
2023/08/06 20:45:24;;;;;;;5.80;1.98;;;19.50;97.40;;;;;;10488399;28;20412;-70
2023/08/06 20:50:24;;;;;;;4.40;1.77;;;19.50;97.40;;;;;;10472435;28;20408;-69
2023/08/06 20:55:26;;;;;;;3.97;1.73;;;19.40;97.40;;;;;;10474990;28;20461;-69
2023/08/06 21:00:27;;;;;;;5.25;1.80;;;19.40;97.30;;;;;;10471370;28;20413;-70
2023/08/06 21:05:29;;;;;;;4.60;1.90;;;19.40;97.30;;;;;;10478593;28;20417;-69
2023/08/06 21:10:29;;;;;;;4.97;1.98;;;19.40;97.30;;;;;;10481797;28;20813;-68
2023/08/06 21:15:30;;;;;;;4.13;1.70;;;19.40;97.30;;;;;;10477620;28;20415;-70
2023/08/06 21:20:30;;;;;;;3.83;1.60;;;19.40;97.30;;;;;;10477084;28;20545;-69
2023/08/06 21:25:31;;;;;;;3.90;1.77;;;19.40;97.30;;;;;;10474813;28;20904;-69
2023/08/06 21:30:32;;;;;;;4.18;1.67;;;19.30;97.20;;;;;;10479015;28;20411;-70
2023/08/06 21:35:32;;;;;;;4.63;1.83;;;19.40;97.50;;;;;;10475617;28;20452;-69
2023/08/06 21:40:34;;;;;;;3.50;1.73;;;19.30;97.20;;;;;;10485380;28;20405;-69
2023/08/06 21:45:35;;;;;;;3.25;1.80;;;19.30;97.20;;;;;;10478507;28;20428;-69
2023/08/06 21:50:36;;;;;;;3.83;1.80;;;19.30;97.20;;;;;;10454790;28;20413;-69
2023/08/06 21:55:36;;;;;;;4.27;1.70;;;19.30;97.20;;;;;;10475427;28;20413;-68
2023/08/06 22:00:37;;;;;;;3.40;1.70;;;19.30;97.20;;;;;;10479494;28;20424;-68
2023/08/06 22:05:37;;;;;;;3.75;2.08;;;19.30;97.20;;;;;;10490035;28;20406;-70
2023/08/06 22:10:38;;;;;;;4.22;1.83;;;19.30;97.20;;;;;;10482843;28;20439;-69
2023/08/06 22:15:39;;;;;;;4.20;1.92;;;19.20;97.20;;;;;;10488363;28;20861;-69
2023/08/06 22:20:39;;;;;;;4.35;2.00;;;19.20;97.20;;;;;;10484951;28;20770;-70
2023/08/06 22:25:40;;;;;;;3.75;1.90;;;19.20;97.20;;;;;;10491346;28;20498;-69
2023/08/06 22:30:41;;;;;;;3.97;1.90;;;19.30;97.20;;;;;;10478513;28;20811;-69
2023/08/06 22:35:41;;;;;;;4.33;2.20;;;19.20;97.20;;;;;;10498792;28;20409;-68
2023/08/06 22:40:42;;;;;;;4.17;2.37;;;19.20;97.20;;;;;;10491889;28;20882;-68
2023/08/06 22:45:43;;;;;;;4.57;2.37;;;19.20;97.10;;;;;;10499539;28;20398;-68
2023/08/06 22:50:45;;;;;;;4.00;2.37;;;19.20;97.10;;;;;;10486317;28;20409;-69
2023/08/06 22:55:46;;;;;;;3.83;2.40;;;19.20;97.10;;;;;;10485106;28;20405;-68
2023/08/06 23:00:47;;;;;;;5.40;2.50;;;19.20;97.10;;;;;;10494751;28;20916;-70
2023/08/06 23:05:48;;;;;;;3.87;2.47;;;19.20;97.10;;;;;;10495402;28;20465;-69
2023/08/06 23:10:48;;;;;;;4.40;2.90;;;19.20;97.10;;;;;;10485265;28;20407;-69
2023/08/06 23:15:49;;;;;;;4.90;2.90;;;19.10;97.10;;;;;;10487570;28;20936;-67
2023/08/06 23:20:49;;;;;;;4.00;3.10;;;19.10;97.10;;;;;;10484299;28;20466;-70
2023/08/06 23:25:50;;;;;;;3.67;2.90;;;19.10;97.10;;;;;;10493080;28;20409;-68
2023/08/06 23:30:51;;;;;;;6.72;3.17;;;19.20;97.40;;;;;;10501831;28;20414;-69
2023/08/06 23:35:52;;;;;;;3.90;3.10;;;19.10;97.10;;;;;;10484102;28;20415;-68
2023/08/06 23:40:53;;;;;;;4.28;3.50;;;19.10;97.10;;;;;;10485284;28;20419;-69
2023/08/06 23:45:55;;;;;;;3.95;3.10;;;19.10;97.10;;;;;;10485375;28;20656;-69
2023/08/06 23:50:56;;;;;;;5.70;3.35;;;19.10;97.10;;;;;;10490779;28;20406;-68
2023/08/06 23:55:56;;;;;;;7.23;3.70;;;19.10;97.10;;;;;;10488936;28;20796;-68
